Time;durP1;ratioP1;P1;durP2;ratioP2;P2;SDS_P1;SDS_P2;PMS_P1;PMS_P2;Temp;Humidity;BMP_temperature;BMP_pressure;BME280_temperature;BME280_humidity;BME280_pressure;Samples;Min_cycle;Max_cycle;Signal;HPM_P1;HPM_P2
2021/12/12 00:02:20;;;;;;;0.20;0.20;;;;;;;8.00;98.64;91957.16;5094310;28;20040;-48
2021/12/12 00:04:47;;;;;;;;;;;;;;;7.97;98.75;91975.50;5095043;28;20020;-49
2021/12/12 00:07:20;;;;;;;0.98;0.95;;;;;;;7.91;98.83;91993.53;5098595;28;20384;-49
2021/12/12 00:09:49;;;;;;;0.22;0.22;;;;;;;7.92;98.89;91997.75;5096576;28;20104;-49
2021/12/12 00:12:22;;;;;;;0.20;0.20;;;;;;;7.99;99.18;91994.19;5097005;28;20412;-49
2021/12/12 00:14:47;;;;;;;0.20;0.20;;;;;;;7.96;99.09;91992.56;5096836;28;20031;-50
2021/12/12 00:17:13;;;;;;;0.20;0.20;;;;;;;7.99;98.85;91988.69;5098445;28;20042;-49
2021/12/12 00:19:39;;;;;;;0.20;0.20;;;;;;;8.05;98.36;91981.66;5098494;28;20519;-49
2021/12/12 00:22:09;;;;;;;0.20;0.20;;;;;;;8.07;98.46;91981.06;5095558;28;20117;-53
2021/12/12 00:24:35;;;;;;;0.20;0.20;;;;;;;8.21;97.99;91995.91;5098244;28;20580;-53
2021/12/12 00:27:01;;;;;;;0.50;0.50;;;;;;;8.31;97.68;92018.75;5098446;28;20111;-53
2021/12/12 00:29:27;;;;;;;0.20;0.20;;;;;;;8.11;97.25;92022.63;5098667;28;20218;-55
2021/12/12 00:31:57;;;;;;;0.20;0.20;;;;;;;8.06;97.50;92026.34;5100882;28;20023;-57
2021/12/12 00:34:24;;;;;;;3.30;1.35;;;;;;;8.08;98.01;92029.25;5099639;28;20024;-48
2021/12/12 00:36:49;;;;;;;0.20;0.20;;;;;;;8.23;98.18;92029.06;5097912;28;20027;-49
2021/12/12 00:39:18;;;;;;;0.20;0.20;;;;;;;8.29;97.29;92033.03;5097747;28;20027;-51
2021/12/12 00:41:52;;;;;;;0.20;0.20;;;;;;;8.18;97.19;92017.03;5097709;28;20043;-50
2021/12/12 00:44:20;;;;;;;0.20;0.20;;;;;;;8.00;97.46;91992.88;5098961;28;20032;-49
2021/12/12 00:46:46;;;;;;;0.20;0.20;;;;;;;8.12;97.94;92019.28;5099167;28;20500;-51
2021/12/12 00:49:13;;;;;;;0.20;0.20;;;;;;;8.08;97.48;92029.25;5097927;28;20023;-49
2021/12/12 00:51:40;;;;;;;0.20;0.20;;;;;;;8.03;97.60;92035.72;5098416;28;20088;-49
2021/12/12 00:54:07;;;;;;;0.95;0.95;;;;;;;8.14;97.58;92054.47;5097289;28;20040;-51
2021/12/12 00:56:33;;;;;;;0.30;0.30;;;;;;;8.10;97.32;92057.63;5097853;28;20027;-50
2021/12/12 00:58:59;;;;;;;0.50;0.50;;;;;;;8.19;97.81;92065.22;5097241;28;20100;-51
2021/12/12 01:01:30;;;;;;;0.20;0.20;;;;;;;8.25;97.25;92059.50;5096671;28;20042;-51
2021/12/12 01:04:04;;;;;;;0.20;0.20;;;;;;;8.27;97.13;92062.44;5097375;28;20055;-47
2021/12/12 01:06:29;;;;;;;0.20;0.20;;;;;;;8.30;96.10;92056.50;5097928;28;20036;-49
2021/12/12 01:08:58;;;;;;;0.93;0.88;;;;;;;8.39;94.89;92066.88;5096731;28;20039;-50
2021/12/12 01:11:35;;;;;;;0.20;0.20;;;;;;;8.29;94.34;92070.84;5097619;28;20673;-47
2021/12/12 01:14:07;;;;;;;0.20;0.20;;;;;;;8.18;92.74;92076.78;5098366;28;20043;-49
2021/12/12 01:16:46;;;;;;;0.20;0.20;;;;;;;8.14;93.82;92077.19;5097195;28;20082;-51
2021/12/12 01:19:25;;;;;;;0.30;0.30;;;;;;;8.14;94.06;92079.22;5096295;28;20024;-49
2021/12/12 01:21:54;;;;;;;0.20;0.20;;;;;;;8.03;94.67;92071.47;5095978;28;20044;-48
2021/12/12 01:24:34;;;;;;;0.20;0.20;;;;;;;8.00;95.29;92081.56;5096464;28;20093;-48
2021/12/12 01:27:01;;;;;;;0.20;0.20;;;;;;;7.89;95.56;92084.78;5096578;28;20452;-49
2021/12/12 01:29:27;;;;;;;0.20;0.20;;;;;;;8.01;96.10;92090.53;5096253;28;20539;-49
2021/12/12 01:31:54;;;;;;;0.20;0.20;;;;;;;8.08;95.61;92084.94;5098392;28;20031;-48
2021/12/12 01:34:25;;;;;;;0.63;0.63;;;;;;;8.09;94.97;92093.94;5094815;28;20017;-47
2021/12/12 01:39:34;;;;;;;0.40;0.40;;;;;;;7.85;91.84;92100.94;5096764;28;20027;-49
2021/12/12 01:42:05;;;;;;;0.20;0.20;;;;;;;7.84;92.15;92112.50;5096200;28;20032;-49
2021/12/12 01:44:50;;;;;;;0.22;0.22;;;;;;;7.76;91.13;92109.06;5098325;28;20020;-47
2021/12/12 01:47:24;;;;;;;0.40;0.40;;;;;;;7.69;91.15;92113.34;5092301;28;20111;-47
2021/12/12 01:49:54;;;;;;;0.20;0.20;;;;;;;7.73;91.04;92115.72;5096364;28;20028;-49
2021/12/12 01:52:23;;;;;;;0.20;0.20;;;;;;;7.73;90.49;92116.44;5096108;28;20028;-49
2021/12/12 01:54:53;;;;;;;0.40;0.40;;;;;;;7.67;91.14;92124.16;5097147;28;20081;-48
2021/12/12 01:57:27;;;;;;;1.02;1.02;;;;;;;7.49;91.39;92126.13;5096518;28;20028;-47
2021/12/12 01:59:55;;;;;;;0.20;0.20;;;;;;;7.44;91.81;92134.59;5096009;28;20664;-48
2021/12/12 02:02:25;;;;;;;0.20;0.20;;;;;;;7.31;91.17;92145.84;5095917;28;20085;-48
2021/12/12 02:04:54;;;;;;;0.30;0.30;;;;;;;7.30;91.38;92142.38;5097884;28;20025;-48
2021/12/12 02:07:24;;;;;;;0.28;0.28;;;;;;;7.30;92.00;92147.88;5096329;28;20028;-47
2021/12/12 02:09:50;;;;;;;0.20;0.20;;;;;;;7.36;92.39;92151.13;5094719;28;20102;-49
2021/12/12 02:12:18;;;;;;;0.20;0.20;;;;;;;7.45;92.79;92141.56;5099030;28;20028;-46
2021/12/12 02:14:44;;;;;;;0.23;0.23;;;;;;;7.55;92.68;92156.13;5100213;28;20039;-46
2021/12/12 02:17:21;;;;;;;0.20;0.20;;;;;;;7.52;91.75;92162.72;5104997;28;20491;-49
2021/12/12 02:20:04;;;;;;;0.20;0.20;;;;;;;7.43;90.77;92161.31;5102314;28;20031;-47
2021/12/12 02:22:50;;;;;;;0.22;0.22;;;;;;;7.29;90.10;92162.16;5101195;28;20027;-50
2021/12/12 02:36:18;;;;;;;0.20;0.20;;;;;;;6.93;90.07;92159.78;5101852;28;20035;-47
2021/12/12 02:38:44;;;;;;;0.20;0.20;;;;;;;6.55;90.08;92142.78;5100424;28;20054;-46
2021/12/12 02:41:13;;;;;;;0.20;0.20;;;;;;;6.59;90.10;92170.53;5096219;28;20122;-48
2021/12/12 02:43:42;;;;;;;0.32;0.32;;;;;;;6.63;90.57;92168.16;5103212;28;20024;-47
2021/12/12 02:46:09;;;;;;;0.30;0.30;;;;;;;6.61;90.69;92170.72;5102049;28;20097;-46
2021/12/12 02:48:39;;;;;;;0.40;0.40;;;;;;;6.67;90.55;92182.22;5101833;28;20038;-47
2021/12/12 02:51:09;;;;;;;1.40;1.17;;;;;;;6.57;89.96;92154.66;5101146;28;20393;-46
2021/12/12 02:53:41;;;;;;;0.20;0.20;;;;;;;6.45;89.04;92172.06;5101100;28;20050;-46
2021/12/12 02:56:21;;;;;;;0.40;0.40;;;;;;;6.36;90.02;92187.06;5099553;28;20032;-46
2021/12/12 02:58:47;;;;;;;0.25;0.25;;;;;;;6.11;89.47;92180.72;5099519;28;20428;-48
2021/12/12 03:01:27;;;;;;;0.20;0.20;;;;;;;6.02;89.86;92187.47;5101615;28;20024;-46
2021/12/12 03:03:53;;;;;;;0.68;0.68;;;;;;;6.08;89.03;92185.31;5100107;28;20020;-46
2021/12/12 03:06:21;;;;;;;0.30;0.30;;;;;;;6.03;89.25;92182.75;5101660;28;20035;-49
2021/12/12 03:08:50;;;;;;;0.30;0.30;;;;;;;5.87;89.47;92201.19;5100203;28;20039;-47
2021/12/12 03:11:15;;;;;;;0.25;0.25;;;;;;;5.86;89.69;92191.53;5100385;28;20031;-50
2021/12/12 03:13:42;;;;;;;0.20;0.20;;;;;;;5.53;88.91;92195.31;5098718;28;20089;-48
2021/12/12 03:16:08;;;;;;;1.13;1.05;;;;;;;5.52;89.97;92191.13;5099994;28;20031;-49
2021/12/12 03:18:40;;;;;;;0.73;0.73;;;;;;;5.48;89.03;92200.97;5101076;28;20028;-45
2021/12/12 03:21:15;;;;;;;0.40;0.40;;;;;;;5.36;88.95;92195.84;5099091;28;20020;-46
2021/12/12 03:23:47;;;;;;;1.75;1.65;;;;;;;5.42;88.67;92192.19;5099077;28;20392;-46
2021/12/12 03:26:13;;;;;;;0.20;0.20;;;;;;;5.10;89.91;92192.69;5099788;28;20648;-46
2021/12/12 03:28:43;;;;;;;0.25;0.25;;;;;;;5.20;90.62;92197.09;5101479;28;20077;-46
2021/12/12 03:31:14;;;;;;;0.30;0.30;;;;;;;5.19;89.75;92205.84;5097887;28;20038;-45
2021/12/12 03:33:40;;;;;;;0.30;0.30;;;;;;;5.20;90.33;92207.28;5099515;28;20039;-47
2021/12/12 03:36:10;;;;;;;0.43;0.43;;;;;;;5.12;90.07;92215.50;5096561;28;20039;-46
2021/12/12 03:38:38;;;;;;;0.22;0.22;;;;;;;5.00;90.13;92219.81;5098924;28;20042;-45
2021/12/12 03:41:08;;;;;;;1.50;1.45;;;;;;;5.05;90.32;92218.94;5098283;28;20028;-45
2021/12/12 03:43:34;;;;;;;0.30;0.30;;;;;;;5.15;89.17;92224.63;5097643;28;20020;-46
2021/12/12 03:45:59;;;;;;;0.50;0.50;;;;;;;4.95;89.04;92226.22;5099385;28;20040;-45
2021/12/12 03:48:29;;;;;;;0.30;0.30;;;;;;;5.05;89.10;92231.88;5101526;28;20043;-46
2021/12/12 03:50:58;;;;;;;1.05;1.05;;;;;;;4.87;89.68;92244.59;5100433;28;20150;-46
2021/12/12 03:53:26;;;;;;;0.30;0.30;;;;;;;4.56;91.92;92246.47;5100765;28;20039;-48
2021/12/12 03:55:52;;;;;;;0.50;0.50;;;;;;;4.44;93.40;92252.78;5099501;28;20412;-47
2021/12/12 03:58:17;;;;;;;0.68;0.68;;;;;;;4.27;93.94;92255.94;5098005;28;20114;-46
2021/12/12 04:00:50;;;;;;;0.30;0.30;;;;;;;4.16;94.56;92250.06;5100022;28;20246;-47
2021/12/12 04:03:16;;;;;;;0.30;0.30;;;;;;;4.07;94.50;92259.44;5097867;28;20028;-48
2021/12/12 04:05:47;;;;;;;0.32;0.32;;;;;;;4.16;94.42;92266.44;5100788;28;20032;-50
2021/12/12 04:08:13;;;;;;;1.85;1.75;;;;;;;4.24;93.95;92267.94;5098525;28;20032;-48
2021/12/12 04:10:40;;;;;;;0.32;0.32;;;;;;;4.27;93.65;92269.59;5098438;28;20114;-48
2021/12/12 04:13:05;;;;;;;0.57;0.57;;;;;;;4.34;93.88;92271.66;5099364;28;20050;-47
2021/12/12 04:15:31;;;;;;;0.45;0.45;;;;;;;4.35;92.76;92284.03;5098430;28;20036;-46
2021/12/12 04:17:56;;;;;;;2.10;2.00;;;;;;;4.39;91.79;92287.19;5095415;28;20516;-48
2021/12/12 04:20:30;;;;;;;0.30;0.30;;;;;;;4.39;91.35;92298.09;5097235;28;20042;-48
2021/12/12 04:22:56;;;;;;;1.85;1.75;;;;;;;4.55;90.99;92302.38;5098261;28;20031;-48
2021/12/12 04:25:22;;;;;;;0.30;0.30;;;;;;;4.66;90.23;92308.84;5099413;28;20422;-47
2021/12/12 04:27:49;;;;;;;0.30;0.30;;;;;;;4.54;90.66;92325.53;5098149;28;20016;-47
2021/12/12 04:30:16;;;;;;;2.05;1.95;;;;;;;4.50;90.89;92325.13;5097984;28;20563;-46
2021/12/12 04:32:44;;;;;;;4.90;1.98;;;;;;;4.60;91.06;92330.84;5100198;28;20488;-45
2021/12/12 04:35:19;;;;;;;0.80;0.80;;;;;;;4.53;90.86;92332.25;5101836;28;20031;-46
2021/12/12 04:37:45;;;;;;;0.52;0.52;;;;;;;4.57;91.25;92340.09;5099215;28;20127;-46
2021/12/12 04:40:15;;;;;;;1.50;1.45;;;;;;;4.65;90.99;92343.63;5098607;28;20027;-45
2021/12/12 04:42:41;;;;;;;3.30;3.10;;;;;;;4.39;90.44;92338.34;5098872;28;20046;-45
2021/12/12 04:45:12;;;;;;;1.95;1.90;;;;;;;4.21;90.45;92336.56;5098289;28;20501;-46
2021/12/12 04:50:42;;;;;;;1.45;1.42;;;;;;;4.18;92.10;92351.31;5097246;28;20061;-47
2021/12/12 04:53:16;;;;;;;3.78;3.55;;;;;;;4.21;92.51;92359.16;5096859;28;20152;-50
2021/12/12 04:55:52;;;;;;;3.40;3.15;;;;;;;4.26;92.47;92369.22;5094810;28;20043;-48
2021/12/12 04:58:23;;;;;;;1.75;1.65;;;;;;;4.17;93.09;92366.97;5096829;28;20028;-49
2021/12/12 05:00:58;;;;;;;1.73;1.63;;;;;;;4.35;93.82;92366.00;5096568;28;20063;-50
2021/12/12 05:03:31;;;;;;;0.30;0.30;;;;;;;4.37;93.67;92352.56;5098129;28;20031;-48
2021/12/12 05:06:06;;;;;;;1.20;1.13;;;;;;;4.37;92.80;92385.34;5095218;28;20039;-49
2021/12/12 05:08:39;;;;;;;10.52;4.85;;;;;;;4.24;91.67;92388.16;5097727;28;20028;-47
2021/12/12 05:11:13;;;;;;;1.15;1.15;;;;;;;4.07;91.47;92390.53;5095890;28;20032;-49
2021/12/12 05:13:43;;;;;;;0.20;0.20;;;;;;;4.07;92.08;92401.44;5095926;28;20051;-49
2021/12/12 05:16:16;;;;;;;0.30;0.30;;;;;;;4.22;91.88;92401.59;5097902;28;20145;-49
2021/12/12 05:18:49;;;;;;;0.20;0.20;;;;;;;4.21;91.79;92408.34;5095532;28;20029;-49
2021/12/12 05:21:19;;;;;;;0.30;0.30;;;;;;;4.32;92.04;92413.53;5096431;28;20086;-48
2021/12/12 05:23:47;;;;;;;0.47;0.47;;;;;;;4.34;91.72;92423.94;5098445;28;20485;-50
2021/12/12 05:26:18;;;;;;;0.38;0.38;;;;;;;4.44;91.75;92416.75;5101640;28;20062;-47
2021/12/12 05:28:49;;;;;;;0.40;0.40;;;;;;;4.18;91.70;92422.34;5095207;28;20042;-48
2021/12/12 05:31:17;;;;;;;0.30;0.30;;;;;;;4.07;92.00;92417.84;5097729;28;20085;-47
2021/12/12 05:33:43;;;;;;;0.30;0.30;;;;;;;4.18;91.98;92427.81;5096337;28;20066;-46
2021/12/12 05:36:10;;;;;;;1.38;1.27;;;;;;;4.20;92.27;92422.53;5097392;28;20115;-46
2021/12/12 05:38:36;;;;;;;0.30;0.30;;;;;;;4.09;93.04;92423.53;5097639;28;20039;-49
2021/12/12 05:41:02;;;;;;;0.40;0.40;;;;;;;3.93;92.83;92443.00;5099849;28;20067;-49
2021/12/12 05:43:29;;;;;;;0.52;0.52;;;;;;;4.03;93.53;92454.97;5094712;28;20028;-47
2021/12/12 05:45:55;;;;;;;1.17;1.17;;;;;;;4.11;92.93;92451.03;5099128;28;20119;-46
2021/12/12 05:48:21;;;;;;;2.47;0.73;;;;;;;4.03;93.98;92461.13;5103641;27;20026;-46
2021/12/12 05:50:48;;;;;;;1.08;1.08;;;;;;;4.01;95.11;92458.22;5101789;28;20135;-46
2021/12/12 05:53:14;;;;;;;0.82;0.82;;;;;;;4.14;95.38;92463.63;5100869;28;20425;-45
2021/12/12 05:55:42;;;;;;;4.35;1.50;;;;;;;4.24;94.96;92475.59;5103406;28;20438;-45
2021/12/12 05:58:13;;;;;;;1.67;1.60;;;;;;;4.20;94.48;92471.72;5103046;28;20032;-47
2021/12/12 06:00:47;;;;;;;1.52;1.42;;;;;;;4.41;94.58;92483.38;5101979;28;20519;-47
2021/12/12 06:03:15;;;;;;;0.60;0.60;;;;;;;4.63;94.64;92482.88;5101788;28;20488;-46
2021/12/12 06:05:41;;;;;;;0.40;0.40;;;;;;;4.76;94.64;92490.25;5102076;28;20032;-45
2021/12/12 06:08:07;;;;;;;2.65;2.55;;;;;;;4.56;93.57;92499.94;5099620;28;20457;-46
2021/12/12 06:10:35;;;;;;;5.78;2.10;;;;;;;4.83;93.18;92497.81;5102604;28;20439;-47
2021/12/12 06:13:02;;;;;;;3.67;2.47;;;;;;;4.87;92.74;92503.66;5100607;28;20539;-48
2021/12/12 06:15:30;;;;;;;2.67;2.38;;;;;;;5.01;92.47;92518.72;5102687;28;20035;-48
2021/12/12 06:17:56;;;;;;;14.75;6.30;;;;;;;5.17;91.61;92515.56;5099375;28;20535;-46
2021/12/12 06:20:22;;;;;;;7.32;5.38;;;;;;;5.24;89.94;92522.38;5099134;28;20034;-47
2021/12/12 06:22:49;;;;;;;2.25;2.05;;;;;;;5.26;89.47;92522.56;5099829;28;20036;-47
2021/12/12 06:25:14;;;;;;;12.40;5.55;;;;;;;4.95;89.14;92537.28;5100188;28;20110;-49
2021/12/12 06:27:41;;;;;;;2.13;1.20;;;;;;;4.98;90.22;92538.94;5101620;28;20103;-49
2021/12/12 06:30:10;;;;;;;2.88;2.67;;;;;;;5.12;90.63;92551.28;5100415;28;20039;-49
2021/12/12 06:32:36;;;;;;;1.33;1.33;;;;;;;5.17;89.17;92555.88;5102758;28;20036;-47
2021/12/12 06:35:04;;;;;;;0.55;0.55;;;;;;;5.06;89.49;92559.63;5101378;28;20479;-49
2021/12/12 06:37:29;;;;;;;6.95;2.42;;;;;;;5.12;90.16;92557.47;5101241;28;20066;-48
2021/12/12 06:39:56;;;;;;;2.17;2.03;;;;;;;5.18;89.99;92566.28;5100474;28;20020;-47
2021/12/12 06:42:22;;;;;;;0.20;0.20;;;;;;;5.16;90.03;92571.56;5098866;28;20442;-48
2021/12/12 06:44:47;;;;;;;0.40;0.40;;;;;;;5.02;89.25;92575.66;5103054;28;20020;-50
2021/12/12 06:47:15;;;;;;;0.20;0.20;;;;;;;5.06;88.00;92572.56;5100264;28;20057;-49
2021/12/12 06:49:40;;;;;;;0.20;0.20;;;;;;;5.19;87.60;92575.97;5099820;28;20028;-48
2021/12/12 06:52:09;;;;;;;0.22;0.22;;;;;;;5.10;87.90;92573.69;5101154;28;20531;-46
2021/12/12 06:54:35;;;;;;;0.60;0.60;;;;;;;4.86;87.05;92595.91;5100024;28;20023;-49
2021/12/12 06:57:05;;;;;;;0.25;0.25;;;;;;;4.76;87.40;92586.69;5099397;28;20035;-47
2021/12/12 06:59:33;;;;;;;0.20;0.20;;;;;;;4.75;87.63;92592.69;5100966;28;20484;-45
2021/12/12 07:01:59;;;;;;;0.20;0.20;;;;;;;4.58;87.37;92599.28;5100658;28;20023;-47
2021/12/12 07:04:27;;;;;;;0.20;0.20;;;;;;;4.51;88.72;92604.66;5101123;28;20035;-47
2021/12/12 07:06:55;;;;;;;0.47;0.47;;;;;;;4.40;89.40;92597.41;5099450;28;20031;-49
2021/12/12 07:09:21;;;;;;;2.58;2.38;;;;;;;4.52;90.46;92604.13;5099134;28;20024;-48
2021/12/12 07:11:47;;;;;;;1.55;1.45;;;;;;;4.62;90.84;92607.13;5099687;28;20051;-51
2021/12/12 07:14:13;;;;;;;0.98;0.95;;;;;;;4.67;91.23;92605.56;5097901;28;20040;-53
2021/12/12 07:16:39;;;;;;;3.85;3.58;;;;;;;4.92;91.74;92612.19;5102146;28;20453;-49
2021/12/12 07:19:06;;;;;;;4.32;4.00;;;;;;;5.06;91.16;92608.13;5100626;28;20054;-49
2021/12/12 07:21:32;;;;;;;1.38;1.27;;;;;;;5.07;90.48;92615.06;5099861;28;20572;-48
2021/12/12 07:24:00;;;;;;;1.10;1.10;;;;;;;5.06;89.00;92628.03;5098565;27;20016;-48
2021/12/12 07:26:26;;;;;;;0.95;0.95;;;;;;;4.95;87.07;92630.28;5097646;28;20247;-47
2021/12/12 07:28:53;;;;;;;0.55;0.55;;;;;;;5.05;87.25;92636.75;5094857;28;20027;-47
2021/12/12 07:31:22;;;;;;;0.30;0.30;;;;;;;5.05;85.78;92642.22;5096906;28;20027;-46
2021/12/12 07:33:51;;;;;;;0.43;0.43;;;;;;;4.94;85.75;92645.19;5096249;28;20031;-47
2021/12/12 07:36:19;;;;;;;0.90;0.90;;;;;;;4.99;85.53;92649.81;5098089;28;20031;-47
2021/12/12 07:38:48;;;;;;;0.40;0.40;;;;;;;5.03;84.85;92650.22;5096265;28;20046;-46
2021/12/12 07:41:14;;;;;;;1.30;1.23;;;;;;;5.04;85.04;92649.72;5095975;28;21084;-46
2021/12/12 07:43:40;;;;;;;5.60;1.65;;;;;;;5.12;84.35;92650.50;5091492;28;20025;-46
2021/12/12 07:46:07;;;;;;;0.57;0.57;;;;;;;5.12;83.53;92666.91;5097931;28;20074;-47
2021/12/12 07:48:33;;;;;;;0.30;0.30;;;;;;;5.00;83.39;92678.66;5098902;28;20024;-47
2021/12/12 07:51:00;;;;;;;1.48;1.48;;;;;;;4.93;83.45;92684.78;5096867;28;20036;-46
2021/12/12 07:53:29;;;;;;;3.40;3.10;;;;;;;4.87;82.26;92692.38;5095034;28;20019;-46
2021/12/12 07:55:55;;;;;;;0.28;0.28;;;;;;;4.77;82.16;92703.00;5096503;28;20038;-47
2021/12/12 07:58:22;;;;;;;9.07;2.58;;;;;;;4.82;84.02;92713.09;5096513;28;20076;-46
2021/12/12 08:00:49;;;;;;;0.60;0.60;;;;;;;4.91;83.87;92715.41;5096477;28;20028;-51
2021/12/12 08:03:16;;;;;;;1.63;1.55;;;;;;;4.90;82.52;92724.84;5097485;28;20024;-48
2021/12/12 08:05:42;;;;;;;0.63;0.63;;;;;;;4.79;81.19;92724.34;5086019;28;20626;-47
2021/12/12 08:08:12;;;;;;;0.50;0.50;;;;;;;4.74;81.72;92727.94;5096896;28;20494;-48
2021/12/12 08:10:39;;;;;;;0.95;0.52;;;;;;;4.71;81.78;92729.72;5095844;28;20050;-46
2021/12/12 08:13:06;;;;;;;0.80;0.80;;;;;;;4.78;81.86;92734.56;5095694;27;20039;-48
2021/12/12 08:15:32;;;;;;;0.38;0.38;;;;;;;4.70;80.91;92733.00;5094353;28;20043;-46
2021/12/12 08:18:00;;;;;;;0.30;0.30;;;;;;;4.74;80.24;92733.41;5097340;28;20088;-47
2021/12/12 08:20:27;;;;;;;4.57;2.00;;;;;;;4.67;81.18;92748.47;5095017;28;20031;-52
2021/12/12 08:22:53;;;;;;;3.42;1.20;;;;;;;4.69;82.28;92753.41;5091672;28;20024;-48
2021/12/12 08:25:20;;;;;;;0.55;0.55;;;;;;;4.72;82.58;92761.25;5096255;28;20112;-51
2021/12/12 08:27:46;;;;;;;0.90;0.90;;;;;;;4.69;82.39;92769.81;5093560;28;20036;-48
2021/12/12 08:30:14;;;;;;;0.60;0.60;;;;;;;4.69;81.45;92773.28;5095321;28;20035;-49
2021/12/12 08:32:42;;;;;;;1.02;1.02;;;;;;;4.69;81.60;92769.81;5095854;28;20024;-48
2021/12/12 08:35:13;;;;;;;0.20;0.20;;;;;;;4.74;81.90;92777.16;5096464;28;20519;-47
2021/12/12 08:37:40;;;;;;;0.60;0.60;;;;;;;4.65;80.81;92783.06;5097483;28;20485;-48
2021/12/12 08:40:07;;;;;;;0.30;0.30;;;;;;;4.68;80.50;92790.22;5096101;28;20516;-49
2021/12/12 08:42:33;;;;;;;0.28;0.28;;;;;;;4.76;82.34;92789.06;5095394;28;20389;-49
2021/12/12 08:45:16;;;;;;;0.20;0.20;;;;;;;4.74;82.06;92782.63;5094044;28;20024;-48
2021/12/12 08:47:42;;;;;;;0.20;0.20;;;;;;;4.68;81.26;92769.06;5094690;28;20492;-50
2021/12/12 08:50:11;;;;;;;0.20;0.20;;;;;;;4.74;79.94;92783.38;5097310;28;20031;-50
2021/12/12 08:52:39;;;;;;;0.20;0.20;;;;;;;4.83;80.30;92784.94;5097110;28;20089;-49
2021/12/12 08:55:14;;;;;;;11.65;3.13;;;;;;;4.87;79.94;92779.88;5093939;28;20061;-48
2021/12/12 08:57:47;;;;;;;0.70;0.70;;;;;;;4.89;79.98;92785.56;5095198;28;20049;-49
2021/12/12 09:00:16;;;;;;;2.92;2.72;;;;;;;4.98;80.00;92787.88;5093781;28;20096;-48
2021/12/12 09:02:43;;;;;;;1.23;1.20;;;;;;;5.03;80.71;92798.69;5096033;28;20417;-49
2021/12/12 09:05:17;;;;;;;0.38;0.38;;;;;;;5.00;80.01;92793.56;5094593;28;20032;-48
2021/12/12 09:07:46;;;;;;;0.28;0.28;;;;;;;5.00;79.78;92788.78;5095629;28;20043;-49
2021/12/12 09:10:38;;;;;;;0.40;0.40;;;;;;;5.06;79.71;92789.44;5096017;28;20468;-48
2021/12/12 09:13:17;;;;;;;3.92;1.75;;;;;;;5.14;79.90;92793.00;5094622;28;20044;-48
2021/12/12 09:15:48;;;;;;;0.50;0.50;;;;;;;5.11;79.71;92810.44;5093652;28;20035;-45
2021/12/12 09:18:19;;;;;;;0.77;0.77;;;;;;;5.22;79.38;92812.97;5094760;28;20873;-47
2021/12/12 09:20:59;;;;;;;25.35;5.32;;;;;;;5.18;79.35;92822.75;5101428;28;20408;-49
2021/12/12 09:23:28;;;;;;;0.20;0.20;;;;;;;5.12;78.09;92825.63;5096234;28;20024;-46
2021/12/12 09:26:05;;;;;;;0.82;0.82;;;;;;;5.14;78.39;92823.09;5099062;28;20122;-48
2021/12/12 09:28:54;;;;;;;0.45;0.45;;;;;;;5.13;79.21;92818.16;5100006;28;20110;-48
2021/12/12 09:31:30;;;;;;;0.20;0.20;;;;;;;4.99;79.39;92808.47;5100500;28;20024;-49
2021/12/12 09:34:05;;;;;;;0.20;0.20;;;;;;;5.03;79.10;92814.38;5099366;28;20023;-48
2021/12/12 09:36:33;;;;;;;0.82;0.82;;;;;;;5.06;79.54;92818.78;5101141;28;20038;-46
2021/12/12 09:39:06;;;;;;;0.52;0.52;;;;;;;4.94;78.99;92828.47;5099145;28;20504;-47
2021/12/12 09:41:51;;;;;;;1.00;1.00;;;;;;;4.97;79.71;92821.94;5098982;28;20351;-46
2021/12/12 09:44:40;;;;;;;0.40;0.40;;;;;;;4.83;79.86;92793.16;5099416;28;20409;-47
2021/12/12 09:48:00;;;;;;;0.20;0.20;;;;;;;4.96;80.21;92804.09;5099903;28;20433;-51
2021/12/12 09:51:14;;;;;;;1.35;1.30;;;;;;;5.11;80.23;92804.97;5100892;28;20043;-56
2021/12/12 09:54:14;;;;;;;0.30;0.30;;;;;;;5.16;80.02;92806.13;5102844;28;20031;-56
2021/12/12 09:56:56;;;;;;;2.60;1.40;;;;;;;5.11;78.62;92801.53;5102936;28;20106;-57
2021/12/12 09:59:39;;;;;;;2.67;1.60;;;;;;;5.06;78.90;92805.09;5101475;28;20103;-58
2021/12/12 10:02:15;;;;;;;2.30;1.42;;;;;;;5.07;79.27;92795.63;5098311;28;20061;-58
2021/12/12 10:04:43;;;;;;;0.60;0.60;;;;;;;5.13;79.76;92804.47;5099749;28;20031;-57
2021/12/12 10:07:47;;;;;;;0.70;0.70;;;;;;;5.11;79.62;92809.75;5097882;28;20128;-57
2021/12/12 10:10:25;;;;;;;0.95;0.95;;;;;;;5.18;80.03;92820.03;5098897;28;20528;-56
2021/12/12 10:13:19;;;;;;;2.20;2.07;;;;;;;4.98;79.25;92828.91;5098888;28;20070;-58
2021/12/12 10:15:52;;;;;;;3.67;1.48;;;;;;;4.89;80.09;92829.31;5075704;28;20031;-57
2021/12/12 10:18:38;;;;;;;0.55;0.55;;;;;;;4.99;81.09;92841.31;5095574;28;20024;-57
2021/12/12 10:21:16;;;;;;;0.43;0.43;;;;;;;4.98;80.73;92837.81;5096923;28;20028;-57
2021/12/12 10:24:04;;;;;;;0.82;0.82;;;;;;;4.84;80.32;92843.84;5094384;28;20016;-56
2021/12/12 10:26:43;;;;;;;0.73;0.73;;;;;;;4.82;80.76;92847.09;5100496;28;20042;-58
2021/12/12 10:29:19;;;;;;;0.88;0.88;;;;;;;4.79;80.34;92842.69;5096610;28;20024;-57
2021/12/12 10:31:51;;;;;;;0.45;0.45;;;;;;;4.96;80.80;92848.56;5096329;28;20032;-58
2021/12/12 10:34:32;;;;;;;0.75;0.75;;;;;;;4.92;80.07;92859.09;5097549;28;20020;-58
2021/12/12 10:36:58;;;;;;;0.55;0.55;;;;;;;4.89;80.36;92853.94;5098086;28;20027;-58
2021/12/12 10:39:32;;;;;;;1.65;0.63;;;;;;;4.85;79.69;92859.00;5098903;28;20504;-55
2021/12/12 10:42:10;;;;;;;1.75;1.65;;;;;;;4.73;79.11;92865.91;5105061;28;20055;-58
2021/12/12 10:44:39;;;;;;;1.15;0.73;;;;;;;4.63;79.96;92877.25;5096090;28;20845;-59
2021/12/12 10:47:08;;;;;;;0.20;0.20;;;;;;;4.48;78.85;92876.31;5098049;27;20169;-57
2021/12/12 10:49:52;;;;;;;0.20;0.20;;;;;;;4.59;79.95;92878.84;5095207;28;20511;-58
2021/12/12 10:52:55;;;;;;;0.20;0.20;;;;;;;4.57;79.93;92878.63;5098238;28;20115;-55
2021/12/12 10:55:22;;;;;;;1.58;1.48;;;;;;;4.66;79.06;92872.75;5099027;28;20035;-56
2021/12/12 10:58:24;;;;;;;0.32;0.32;;;;;;;4.45;78.13;92867.16;5098082;28;20433;-58
2021/12/12 11:01:15;;;;;;;0.20;0.20;;;;;;;4.40;78.82;92876.19;5096789;28;20167;-56
2021/12/12 11:03:48;;;;;;;0.50;0.50;;;;;;;4.50;78.53;92862.84;5100060;28;20039;-58
2021/12/12 11:06:20;;;;;;;0.55;0.55;;;;;;;4.42;77.19;92862.72;5099012;28;20053;-58
2021/12/12 11:08:54;;;;;;;0.20;0.20;;;;;;;4.39;77.73;92869.25;5099353;28;20107;-58
2021/12/12 11:11:34;;;;;;;0.45;0.45;;;;;;;4.37;79.06;92866.31;5092788;28;20032;-59
2021/12/12 11:14:18;;;;;;;0.20;0.20;;;;;;;4.45;78.59;92855.47;5096721;28;20036;-59
2021/12/12 11:16:48;;;;;;;0.63;0.63;;;;;;;4.53;77.59;92853.59;5098584;28;20439;-59
2021/12/12 11:19:15;;;;;;;0.45;0.45;;;;;;;4.66;77.30;92866.56;5100184;28;20452;-58
2021/12/12 11:21:45;;;;;;;0.20;0.20;;;;;;;4.70;77.91;92858.78;5094014;28;20597;-60
2021/12/12 11:24:36;;;;;;;0.30;0.30;;;;;;;4.69;78.02;92858.03;5092351;28;20024;-58
2021/12/12 11:27:13;;;;;;;0.65;0.65;;;;;;;4.61;77.32;92857.19;5095380;28;20040;-57
2021/12/12 11:29:47;;;;;;;0.65;0.65;;;;;;;4.72;78.82;92861.72;5094693;28;20474;-57
2021/12/12 11:32:18;;;;;;;0.50;0.50;;;;;;;4.78;78.96;92865.84;5095682;28;20519;-57
2021/12/12 11:34:47;;;;;;;0.30;0.30;;;;;;;4.76;78.88;92870.34;5093540;28;20027;-58
2021/12/12 11:37:33;;;;;;;0.50;0.50;;;;;;;4.65;78.22;92865.06;5096514;28;20512;-56
2021/12/12 11:40:32;;;;;;;0.40;0.40;;;;;;;4.77;78.97;92864.34;5099603;28;20032;-58
2021/12/12 11:42:57;;;;;;;;;;;;;;;4.63;77.97;92870.34;5095944;28;20114;-63
2021/12/12 11:45:31;;;;;;;0.43;0.43;;;;;;;4.50;78.10;92868.31;5095667;28;20068;-60
2021/12/12 11:48:21;;;;;;;2.15;2.05;;;;;;;4.31;78.03;92868.38;5096706;28;20104;-60
2021/12/12 11:50:57;;;;;;;0.25;0.25;;;;;;;4.26;78.50;92876.69;5097126;28;20105;-62
2021/12/12 11:54:10;;;;;;;0.75;0.75;;;;;;;4.22;79.18;92876.25;5095784;28;20191;-58
2021/12/12 11:56:48;;;;;;;0.57;0.57;;;;;;;4.02;78.62;92880.28;5092922;28;20488;-60
2021/12/12 11:59:31;;;;;;;1.83;1.73;;;;;;;3.99;79.43;92881.31;5097377;28;20064;-59
2021/12/12 12:02:25;;;;;;;0.20;0.20;;;;;;;4.06;80.22;92885.44;5094597;28;20080;-59
2021/12/12 12:05:30;;;;;;;0.43;0.43;;;;;;;3.94;79.70;92882.16;5095232;28;20405;-57
2021/12/12 12:08:19;;;;;;;0.80;0.80;;;;;;;3.85;80.74;92888.72;5095734;28;20095;-58
2021/12/12 12:10:59;;;;;;;;;;;;;;;3.82;80.93;92897.22;5098440;28;20485;-58
2021/12/12 12:13:24;;;;;;;0.30;0.30;;;;;;;3.72;80.87;92896.88;5096942;28;19955;-59
2021/12/12 12:15:57;;;;;;;1.50;1.50;;;;;;;3.77;80.47;92901.50;5098591;28;20074;-63
2021/12/12 12:18:49;;;;;;;1.48;1.38;;;;;;;3.79;80.56;92898.25;5092921;28;20020;-58
2021/12/12 12:21:24;;;;;;;0.22;0.22;;;;;;;3.66;80.66;92898.22;5093872;27;20050;-61